Terminal Aerodrome Forecast
Issued by NWS

Home | Current Version | Previous Version | Text Only | Print | Product List | Glossary On
Versions: 1 2 3 4 5 6 7 8 9 10 11 12 13 14 15
000
FTUS45 KABQ 030500
TAFAEG
TAF
KAEG 030535Z 0306/0406 27012G20KT P6SM VCSH OVC035
      TEMPO 0306/0308 -SHRA OVC028
     FM031300 30007KT P6SM SCT030
     FM031800 25013G20KT P6SM FEW080
     FM040200 27007KT P6SM FEW080=

USA.gov is the U.S. government's official web portal to all federal, state and local government web resources and services.